sensor_id;sensor_type;location;lat;lon;timestamp;temperature;humidity
20380;DHT22;10349;48.666;8.948;2022-09-16T00:00:23;11.80;99.90
20380;DHT22;10349;48.666;8.948;2022-09-16T00:02:51;11.80;99.90
20380;DHT22;10349;48.666;8.948;2022-09-16T00:05:17;11.80;99.90
20380;DHT22;10349;48.666;8.948;2022-09-16T00:07:44;11.80;99.90
20380;DHT22;10349;48.666;8.948;2022-09-16T00:10:09;11.90;99.90
20380;DHT22;10349;48.666;8.948;2022-09-16T00:12:35;11.90;99.90
20380;DHT22;10349;48.666;8.948;2022-09-16T00:15:01;11.90;99.90
20380;DHT22;10349;48.666;8.948;2022-09-16T00:17:27;11.90;99.90
20380;DHT22;10349;48.666;8.948;2022-09-16T00:19:54;11.90;99.90
20380;DHT22;10349;48.666;8.948;2022-09-16T00:22:20;11.90;99.90
20380;DHT22;10349;48.666;8.948;2022-09-16T00:24:47;12.00;99.90
20380;DHT22;10349;48.666;8.948;2022-09-16T00:27:13;12.00;99.90
20380;DHT22;10349;48.666;8.948;2022-09-16T00:29:39;12.00;99.90
20380;DHT22;10349;48.666;8.948;2022-09-16T00:32:04;12.10;99.90
20380;DHT22;10349;48.666;8.948;2022-09-16T00:34:30;12.10;99.90
20380;DHT22;10349;48.666;8.948;2022-09-16T00:36:56;12.00;99.90
20380;DHT22;10349;48.666;8.948;2022-09-16T00:39:21;12.00;99.90
20380;DHT22;10349;48.666;8.948;2022-09-16T00:41:47;12.00;99.90
20380;DHT22;10349;48.666;8.948;2022-09-16T00:47:31;12.00;99.90
20380;DHT22;10349;48.666;8.948;2022-09-16T00:52:33;12.00;99.90
20380;DHT22;10349;48.666;8.948;2022-09-16T00:55:03;12.00;99.90
20380;DHT22;10349;48.666;8.948;2022-09-16T00:57:30;12.00;99.90
20380;DHT22;10349;48.666;8.948;2022-09-16T00:59:57;11.90;99.90
20380;DHT22;10349;48.666;8.948;2022-09-16T01:02:24;12.00;99.90
20380;DHT22;10349;48.666;8.948;2022-09-16T01:07:18;11.90;99.90
20380;DHT22;10349;48.666;8.948;2022-09-16T01:09:47;12.00;99.90
20380;DHT22;10349;48.666;8.948;2022-09-16T01:12:13;12.00;99.90
20380;DHT22;10349;48.666;8.948;2022-09-16T01:14:39;12.00;99.90
20380;DHT22;10349;48.666;8.948;2022-09-16T01:31:12;12.10;99.90
20380;DHT22;10349;48.666;8.948;2022-09-16T01:34:07;12.10;99.90
20380;DHT22;10349;48.666;8.948;2022-09-16T01:39:43;12.20;99.90
20380;DHT22;10349;48.666;8.948;2022-09-16T01:42:39;12.20;99.90
20380;DHT22;10349;48.666;8.948;2022-09-16T01:56:08;12.10;99.90
20380;DHT22;10349;48.666;8.948;2022-09-16T01:58:47;12.00;99.90
20380;DHT22;10349;48.666;8.948;2022-09-16T02:01:20;12.00;99.90
20380;DHT22;10349;48.666;8.948;2022-09-16T02:03:53;12.10;99.90
20380;DHT22;10349;48.666;8.948;2022-09-16T02:06:21;12.10;99.90
20380;DHT22;10349;48.666;8.948;2022-09-16T02:08:57;12.10;99.90
20380;DHT22;10349;48.666;8.948;2022-09-16T02:11:24;12.10;99.90
20380;DHT22;10349;48.666;8.948;2022-09-16T02:14:05;12.10;99.90
20380;DHT22;10349;48.666;8.948;2022-09-16T02:16:36;12.20;99.90
20380;DHT22;10349;48.666;8.948;2022-09-16T02:19:11;12.20;99.90
20380;DHT22;10349;48.666;8.948;2022-09-16T02:21:40;12.20;99.90
20380;DHT22;10349;48.666;8.948;2022-09-16T02:24:09;12.20;99.90
20380;DHT22;10349;48.666;8.948;2022-09-16T02:26:40;12.20;99.90
20380;DHT22;10349;48.666;8.948;2022-09-16T02:29:12;12.20;99.90
20380;DHT22;10349;48.666;8.948;2022-09-16T02:31:41;12.20;99.90
20380;DHT22;10349;48.666;8.948;2022-09-16T02:34:20;12.20;99.90
20380;DHT22;10349;48.666;8.948;2022-09-16T02:36:52;12.20;99.90
20380;DHT22;10349;48.666;8.948;2022-09-16T02:39:25;12.20;99.90
20380;DHT22;10349;48.666;8.948;2022-09-16T02:41:52;12.20;99.90
20380;DHT22;10349;48.666;8.948;2022-09-16T02:44:20;12.20;99.90
20380;DHT22;10349;48.666;8.948;2022-09-16T02:49:38;12.20;99.90
20380;DHT22;10349;48.666;8.948;2022-09-16T02:54:54;12.20;99.90
20380;DHT22;10349;48.666;8.948;2022-09-16T02:57:20;12.20;99.90
20380;DHT22;10349;48.666;8.948;2022-09-16T02:59:47;12.10;99.90
20380;DHT22;10349;48.666;8.948;2022-09-16T03:02:13;12.20;99.90
20380;DHT22;10349;48.666;8.948;2022-09-16T03:04:39;12.10;99.90
20380;DHT22;10349;48.666;8.948;2022-09-16T03:07:06;12.10;99.90
20380;DHT22;10349;48.666;8.948;2022-09-16T03:09:34;12.20;99.90
20380;DHT22;10349;48.666;8.948;2022-09-16T03:20:24;12.30;99.90
20380;DHT22;10349;48.666;8.948;2022-09-16T03:28:13;12.20;99.90
20380;DHT22;10349;48.666;8.948;2022-09-16T03:31:17;12.20;99.90
20380;DHT22;10349;48.666;8.948;2022-09-16T03:33:56;12.20;99.90
20380;DHT22;10349;48.666;8.948;2022-09-16T03:36:28;12.30;99.90
20380;DHT22;10349;48.666;8.948;2022-09-16T03:38:59;12.30;99.90
20380;DHT22;10349;48.666;8.948;2022-09-16T03:41:28;12.30;99.90
20380;DHT22;10349;48.666;8.948;2022-09-16T03:43:56;12.30;99.90
20380;DHT22;10349;48.666;8.948;2022-09-16T03:46:22;12.30;99.90
20380;DHT22;10349;48.666;8.948;2022-09-16T03:48:48;12.40;99.90
20380;DHT22;10349;48.666;8.948;2022-09-16T03:51:14;12.40;99.90
20380;DHT22;10349;48.666;8.948;2022-09-16T03:53:40;12.40;99.90
20380;DHT22;10349;48.666;8.948;2022-09-16T03:56:06;12.40;99.90
20380;DHT22;10349;48.666;8.948;2022-09-16T03:58:31;12.40;99.90
20380;DHT22;10349;48.666;8.948;2022-09-16T04:00:57;12.40;99.90
20380;DHT22;10349;48.666;8.948;2022-09-16T04:03:22;12.40;99.90
20380;DHT22;10349;48.666;8.948;2022-09-16T04:05:55;12.40;99.90
20380;DHT22;10349;48.666;8.948;2022-09-16T04:08:21;12.40;99.90
20380;DHT22;10349;48.666;8.948;2022-09-16T04:10:59;12.50;99.90
20380;DHT22;10349;48.666;8.948;2022-09-16T04:13:28;12.40;99.90
20380;DHT22;10349;48.666;8.948;2022-09-16T04:15:54;12.40;99.90
20380;DHT22;10349;48.666;8.948;2022-09-16T04:18:20;12.50;99.90
20380;DHT22;10349;48.666;8.948;2022-09-16T04:20:46;12.40;99.90
20380;DHT22;10349;48.666;8.948;2022-09-16T04:23:12;12.40;99.90
20380;DHT22;10349;48.666;8.948;2022-09-16T04:25:38;12.40;99.90
20380;DHT22;10349;48.666;8.948;2022-09-16T04:28:05;12.40;99.90
20380;DHT22;10349;48.666;8.948;2022-09-16T04:30:31;12.40;99.90
20380;DHT22;10349;48.666;8.948;2022-09-16T04:32:57;12.40;99.90
20380;DHT22;10349;48.666;8.948;2022-09-16T04:35:23;12.50;99.90
20380;DHT22;10349;48.666;8.948;2022-09-16T04:37:50;12.50;99.90
20380;DHT22;10349;48.666;8.948;2022-09-16T04:40:15;12.50;99.90
20380;DHT22;10349;48.666;8.948;2022-09-16T04:42:47;12.50;99.90
20380;DHT22;10349;48.666;8.948;2022-09-16T04:45:13;12.50;99.90
20380;DHT22;10349;48.666;8.948;2022-09-16T04:47:39;12.50;99.90
20380;DHT22;10349;48.666;8.948;2022-09-16T04:50:05;12.50;99.90
20380;DHT22;10349;48.666;8.948;2022-09-16T04:52:31;12.50;99.90
20380;DHT22;10349;48.666;8.948;2022-09-16T04:54:57;12.50;99.90
20380;DHT22;10349;48.666;8.948;2022-09-16T04:57:23;12.50;99.90
20380;DHT22;10349;48.666;8.948;2022-09-16T04:59:48;12.50;99.90
20380;DHT22;10349;48.666;8.948;2022-09-16T05:02:14;12.60;99.90
20380;DHT22;10349;48.666;8.948;2022-09-16T05:04:39;12.60;99.90
20380;DHT22;10349;48.666;8.948;2022-09-16T05:07:05;12.60;99.90
20380;DHT22;10349;48.666;8.948;2022-09-16T05:09:31;12.60;99.90
20380;DHT22;10349;48.666;8.948;2022-09-16T05:11:56;12.60;99.90
20380;DHT22;10349;48.666;8.948;2022-09-16T05:14:22;12.60;99.90
20380;DHT22;10349;48.666;8.948;2022-09-16T05:16:48;12.60;99.90
20380;DHT22;10349;48.666;8.948;2022-09-16T05:19:14;12.50;99.90
20380;DHT22;10349;48.666;8.948;2022-09-16T05:21:40;12.50;99.90
20380;DHT22;10349;48.666;8.948;2022-09-16T05:24:09;12.50;99.90
20380;DHT22;10349;48.666;8.948;2022-09-16T05:26:37;12.40;99.90
20380;DHT22;10349;48.666;8.948;2022-09-16T05:29:06;12.40;99.90
20380;DHT22;10349;48.666;8.948;2022-09-16T05:31:35;12.40;99.90
20380;DHT22;10349;48.666;8.948;2022-09-16T05:36:56;12.50;99.90
20380;DHT22;10349;48.666;8.948;2022-09-16T05:39:23;12.50;99.90
20380;DHT22;10349;48.666;8.948;2022-09-16T05:41:51;12.60;99.90
20380;DHT22;10349;48.666;8.948;2022-09-16T05:44:17;12.50;99.90
20380;DHT22;10349;48.666;8.948;2022-09-16T05:46:42;12.50;99.90
20380;DHT22;10349;48.666;8.948;2022-09-16T05:49:09;12.50;99.90
20380;DHT22;10349;48.666;8.948;2022-09-16T05:51:36;12.50;99.90
20380;DHT22;10349;48.666;8.948;2022-09-16T05:54:02;12.60;99.90
20380;DHT22;10349;48.666;8.948;2022-09-16T05:56:29;12.60;99.90
20380;DHT22;10349;48.666;8.948;2022-09-16T05:58:59;12.60;99.90
20380;DHT22;10349;48.666;8.948;2022-09-16T06:01:28;12.60;99.90
20380;DHT22;10349;48.666;8.948;2022-09-16T06:03:54;12.50;99.90
20380;DHT22;10349;48.666;8.948;2022-09-16T06:06:24;12.40;99.90
20380;DHT22;10349;48.666;8.948;2022-09-16T06:08:52;12.30;99.90
20380;DHT22;10349;48.666;8.948;2022-09-16T06:11:18;12.30;99.90
20380;DHT22;10349;48.666;8.948;2022-09-16T06:13:44;12.20;99.90
20380;DHT22;10349;48.666;8.948;2022-09-16T06:16:10;12.10;99.90
20380;DHT22;10349;48.666;8.948;2022-09-16T06:18:36;12.10;99.90
20380;DHT22;10349;48.666;8.948;2022-09-16T06:21:10;12.00;99.90
20380;DHT22;10349;48.666;8.948;2022-09-16T06:23:37;11.90;99.90
20380;DHT22;10349;48.666;8.948;2022-09-16T06:26:08;11.90;99.90
20380;DHT22;10349;48.666;8.948;2022-09-16T06:28:35;11.80;99.90
20380;DHT22;10349;48.666;8.948;2022-09-16T06:31:04;11.80;99.90
20380;DHT22;10349;48.666;8.948;2022-09-16T06:33:29;11.70;99.90
20380;DHT22;10349;48.666;8.948;2022-09-16T06:35:55;11.70;99.90
20380;DHT22;10349;48.666;8.948;2022-09-16T06:38:22;11.70;99.90
20380;DHT22;10349;48.666;8.948;2022-09-16T06:40:48;11.70;99.90
20380;DHT22;10349;48.666;8.948;2022-09-16T06:43:15;11.60;99.90
20380;DHT22;10349;48.666;8.948;2022-09-16T06:45:40;11.60;99.90
20380;DHT22;10349;48.666;8.948;2022-09-16T06:48:06;11.60;99.90
20380;DHT22;10349;48.666;8.948;2022-09-16T06:50:32;11.60;99.90
20380;DHT22;10349;48.666;8.948;2022-09-16T06:52:58;11.70;99.90
20380;DHT22;10349;48.666;8.948;2022-09-16T06:55:24;11.70;99.90
20380;DHT22;10349;48.666;8.948;2022-09-16T06:57:49;11.70;99.90
20380;DHT22;10349;48.666;8.948;2022-09-16T07:00:15;11.70;99.90
20380;DHT22;10349;48.666;8.948;2022-09-16T07:02:41;11.70;99.90
20380;DHT22;10349;48.666;8.948;2022-09-16T07:05:07;11.70;99.90
20380;DHT22;10349;48.666;8.948;2022-09-16T07:07:33;11.70;99.90
20380;DHT22;10349;48.666;8.948;2022-09-16T07:10:00;11.80;99.90
20380;DHT22;10349;48.666;8.948;2022-09-16T07:12:27;11.80;99.90
20380;DHT22;10349;48.666;8.948;2022-09-16T07:14:53;11.80;99.90
20380;DHT22;10349;48.666;8.948;2022-09-16T07:17:18;11.70;99.90
20380;DHT22;10349;48.666;8.948;2022-09-16T07:19:44;11.70;99.90
20380;DHT22;10349;48.666;8.948;2022-09-16T07:22:10;11.60;99.90
20380;DHT22;10349;48.666;8.948;2022-09-16T07:24:35;11.50;99.90
20380;DHT22;10349;48.666;8.948;2022-09-16T07:27:01;11.50;99.90
20380;DHT22;10349;48.666;8.948;2022-09-16T07:29:27;11.50;99.90
20380;DHT22;10349;48.666;8.948;2022-09-16T07:31:52;11.40;99.90
20380;DHT22;10349;48.666;8.948;2022-09-16T07:34:18;11.50;99.90
20380;DHT22;10349;48.666;8.948;2022-09-16T07:36:47;11.50;99.90
20380;DHT22;10349;48.666;8.948;2022-09-16T07:39:16;11.50;99.90
20380;DHT22;10349;48.666;8.948;2022-09-16T07:41:44;11.40;99.90
20380;DHT22;10349;48.666;8.948;2022-09-16T07:44:14;11.40;99.90
20380;DHT22;10349;48.666;8.948;2022-09-16T07:46:41;11.40;99.90
20380;DHT22;10349;48.666;8.948;2022-09-16T07:49:08;11.40;99.90
20380;DHT22;10349;48.666;8.948;2022-09-16T07:51:35;11.40;99.90
20380;DHT22;10349;48.666;8.948;2022-09-16T07:54:04;11.40;99.90
20380;DHT22;10349;48.666;8.948;2022-09-16T07:56:34;11.40;99.90
20380;DHT22;10349;48.666;8.948;2022-09-16T07:59:02;11.40;99.90
20380;DHT22;10349;48.666;8.948;2022-09-16T08:01:28;11.40;99.90
20380;DHT22;10349;48.666;8.948;2022-09-16T08:03:56;11.50;99.90
20380;DHT22;10349;48.666;8.948;2022-09-16T08:06:25;11.40;99.90
20380;DHT22;10349;48.666;8.948;2022-09-16T08:08:53;11.40;99.90
20380;DHT22;10349;48.666;8.948;2022-09-16T08:11:19;11.40;99.90
20380;DHT22;10349;48.666;8.948;2022-09-16T08:13:45;11.40;99.90
20380;DHT22;10349;48.666;8.948;2022-09-16T08:16:16;11.40;99.90
20380;DHT22;10349;48.666;8.948;2022-09-16T08:18:42;11.50;99.90
20380;DHT22;10349;48.666;8.948;2022-09-16T08:21:16;11.50;99.90
20380;DHT22;10349;48.666;8.948;2022-09-16T08:23:42;11.60;99.90
20380;DHT22;10349;48.666;8.948;2022-09-16T08:26:08;11.70;99.90
20380;DHT22;10349;48.666;8.948;2022-09-16T08:28:39;11.70;99.90
20380;DHT22;10349;48.666;8.948;2022-09-16T08:31:06;11.80;99.90
20380;DHT22;10349;48.666;8.948;2022-09-16T08:33:32;12.00;99.90
20380;DHT22;10349;48.666;8.948;2022-09-16T08:38:29;12.00;99.90
20380;DHT22;10349;48.666;8.948;2022-09-16T08:47:02;12.00;99.90
20380;DHT22;10349;48.666;8.948;2022-09-16T08:49:30;12.10;99.90
20380;DHT22;10349;48.666;8.948;2022-09-16T08:51:59;12.20;99.90
20380;DHT22;10349;48.666;8.948;2022-09-16T08:54:55;12.20;99.90
20380;DHT22;10349;48.666;8.948;2022-09-16T08:57:25;12.20;99.90
20380;DHT22;10349;48.666;8.948;2022-09-16T08:59:55;12.30;99.90
20380;DHT22;10349;48.666;8.948;2022-09-16T09:04:58;12.30;99.90
20380;DHT22;10349;48.666;8.948;2022-09-16T09:10:21;12.40;99.90
20380;DHT22;10349;48.666;8.948;2022-09-16T09:15:39;12.40;99.90
20380;DHT22;10349;48.666;8.948;2022-09-16T09:21:15;12.60;99.90
20380;DHT22;10349;48.666;8.948;2022-09-16T09:26:27;12.60;99.90
20380;DHT22;10349;48.666;8.948;2022-09-16T09:31:42;12.50;99.90
20380;DHT22;10349;48.666;8.948;2022-09-16T09:39:22;12.70;99.90
20380;DHT22;10349;48.666;8.948;2022-09-16T09:44:38;12.90;99.90
20380;DHT22;10349;48.666;8.948;2022-09-16T09:47:21;12.90;99.90
20380;DHT22;10349;48.666;8.948;2022-09-16T09:49:55;13.00;99.90
20380;DHT22;10349;48.666;8.948;2022-09-16T09:52:44;13.00;99.90
20380;DHT22;10349;48.666;8.948;2022-09-16T09:55:19;13.10;99.90
20380;DHT22;10349;48.666;8.948;2022-09-16T09:58:04;13.10;99.90
20380;DHT22;10349;48.666;8.948;2022-09-16T10:00:31;13.10;99.90
20380;DHT22;10349;48.666;8.948;2022-09-16T10:03:27;13.00;99.90
20380;DHT22;10349;48.666;8.948;2022-09-16T10:05:52;13.10;99.90
20380;DHT22;10349;48.666;8.948;2022-09-16T10:08:22;13.00;99.90
20380;DHT22;10349;48.666;8.948;2022-09-16T10:10:59;13.10;99.90
20380;DHT22;10349;48.666;8.948;2022-09-16T10:13:26;13.00;99.90
20380;DHT22;10349;48.666;8.948;2022-09-16T10:16:07;13.00;99.90
20380;DHT22;10349;48.666;8.948;2022-09-16T10:18:35;13.00;99.90
20380;DHT22;10349;48.666;8.948;2022-09-16T10:21:07;13.10;99.90
20380;DHT22;10349;48.666;8.948;2022-09-16T10:23:34;13.20;99.90
20380;DHT22;10349;48.666;8.948;2022-09-16T10:26:19;13.20;99.90
20380;DHT22;10349;48.666;8.948;2022-09-16T10:29:02;13.20;99.90
20380;DHT22;10349;48.666;8.948;2022-09-16T10:31:34;13.30;99.90
20380;DHT22;10349;48.666;8.948;2022-09-16T10:34:02;13.40;99.90
20380;DHT22;10349;48.666;8.948;2022-09-16T10:36:33;13.50;99.90
20380;DHT22;10349;48.666;8.948;2022-09-16T10:39:03;13.50;99.90
20380;DHT22;10349;48.666;8.948;2022-09-16T10:41:49;13.60;99.90
20380;DHT22;10349;48.666;8.948;2022-09-16T10:44:27;13.50;99.90
20380;DHT22;10349;48.666;8.948;2022-09-16T10:46:57;13.50;99.90
20380;DHT22;10349;48.666;8.948;2022-09-16T10:49:31;13.50;99.90
20380;DHT22;10349;48.666;8.948;2022-09-16T10:52:13;13.50;99.90
20380;DHT22;10349;48.666;8.948;2022-09-16T10:54:39;13.40;99.90
20380;DHT22;10349;48.666;8.948;2022-09-16T10:57:29;13.30;99.90
20380;DHT22;10349;48.666;8.948;2022-09-16T11:03:07;13.40;99.90
20380;DHT22;10349;48.666;8.948;2022-09-16T11:11:30;13.50;99.90
20380;DHT22;10349;48.666;8.948;2022-09-16T11:14:08;13.50;99.90
20380;DHT22;10349;48.666;8.948;2022-09-16T11:16:54;13.60;99.90
20380;DHT22;10349;48.666;8.948;2022-09-16T11:22:25;13.50;99.90
20380;DHT22;10349;48.666;8.948;2022-09-16T11:25:30;13.50;99.90
20380;DHT22;10349;48.666;8.948;2022-09-16T11:30:27;13.40;99.90
20380;DHT22;10349;48.666;8.948;2022-09-16T11:38:55;13.60;99.90
20380;DHT22;10349;48.666;8.948;2022-09-16T11:58:42;14.00;99.90
20380;DHT22;10349;48.666;8.948;2022-09-16T12:01:34;14.10;99.90
20380;DHT22;10349;48.666;8.948;2022-09-16T12:06:59;14.50;99.90
20380;DHT22;10349;48.666;8.948;2022-09-16T12:09:41;14.60;99.90
20380;DHT22;10349;48.666;8.948;2022-09-16T12:12:18;14.70;99.90
20380;DHT22;10349;48.666;8.948;2022-09-16T12:15:38;14.80;99.90
20380;DHT22;10349;48.666;8.948;2022-09-16T12:17:58;14.90;99.90
20380;DHT22;10349;48.666;8.948;2022-09-16T12:20:29;14.80;99.90
20380;DHT22;10349;48.666;8.948;2022-09-16T12:23:28;14.80;99.90
20380;DHT22;10349;48.666;8.948;2022-09-16T12:29:09;14.80;99.90
20380;DHT22;10349;48.666;8.948;2022-09-16T12:34:14;14.40;99.90
20380;DHT22;10349;48.666;8.948;2022-09-16T12:36:46;14.40;99.90
20380;DHT22;10349;48.666;8.948;2022-09-16T12:39:12;14.40;99.90
20380;DHT22;10349;48.666;8.948;2022-09-16T12:58:23;14.60;99.90
20380;DHT22;10349;48.666;8.948;2022-09-16T13:01:04;14.50;99.90
20380;DHT22;10349;48.666;8.948;2022-09-16T13:03:32;14.60;99.90
20380;DHT22;10349;48.666;8.948;2022-09-16T13:06:06;14.50;99.90
20380;DHT22;10349;48.666;8.948;2022-09-16T13:08:39;14.60;99.90
20380;DHT22;10349;48.666;8.948;2022-09-16T13:11:13;14.50;99.90
20380;DHT22;10349;48.666;8.948;2022-09-16T13:13:42;14.40;99.90
20380;DHT22;10349;48.666;8.948;2022-09-16T13:16:10;14.40;99.90
20380;DHT22;10349;48.666;8.948;2022-09-16T13:18:48;14.30;99.90
20380;DHT22;10349;48.666;8.948;2022-09-16T13:21:27;14.30;99.90
20380;DHT22;10349;48.666;8.948;2022-09-16T13:24:05;14.50;99.90
20380;DHT22;10349;48.666;8.948;2022-09-16T13:26:38;14.60;99.90
20380;DHT22;10349;48.666;8.948;2022-09-16T13:29:41;14.80;99.90
20380;DHT22;10349;48.666;8.948;2022-09-16T13:32:35;15.10;99.90
20380;DHT22;10349;48.666;8.948;2022-09-16T13:35:21;15.40;99.90
20380;DHT22;10349;48.666;8.948;2022-09-16T13:37:49;15.60;99.90
20380;DHT22;10349;48.666;8.948;2022-09-16T13:40:27;15.70;99.90
20380;DHT22;10349;48.666;8.948;2022-09-16T13:45:44;15.70;99.90
20380;DHT22;10349;48.666;8.948;2022-09-16T13:48:17;15.60;99.90
20380;DHT22;10349;48.666;8.948;2022-09-16T13:50:52;15.40;99.90
20380;DHT22;10349;48.666;8.948;2022-09-16T13:53:29;15.30;99.90
20380;DHT22;10349;48.666;8.948;2022-09-16T13:56:21;15.10;99.90
20380;DHT22;10349;48.666;8.948;2022-09-16T14:09:22;14.80;99.90
20380;DHT22;10349;48.666;8.948;2022-09-16T14:14:42;15.00;99.90
20380;DHT22;10349;48.666;8.948;2022-09-16T14:17:25;15.10;99.90
20380;DHT22;10349;48.666;8.948;2022-09-16T14:19:57;15.30;99.90
20380;DHT22;10349;48.666;8.948;2022-09-16T14:22:23;15.50;99.90
20380;DHT22;10349;48.666;8.948;2022-09-16T14:24:52;15.60;99.90
20380;DHT22;10349;48.666;8.948;2022-09-16T14:27:31;15.70;99.90
20380;DHT22;10349;48.666;8.948;2022-09-16T14:30:11;15.70;99.90
20380;DHT22;10349;48.666;8.948;2022-09-16T14:32:37;15.70;99.90
20380;DHT22;10349;48.666;8.948;2022-09-16T14:35:09;15.80;99.90
20380;DHT22;10349;48.666;8.948;2022-09-16T14:37:36;15.80;99.90
20380;DHT22;10349;48.666;8.948;2022-09-16T14:40:09;15.80;99.90
20380;DHT22;10349;48.666;8.948;2022-09-16T14:42:36;15.80;99.90
20380;DHT22;10349;48.666;8.948;2022-09-16T14:45:03;15.80;99.90
20380;DHT22;10349;48.666;8.948;2022-09-16T14:50:03;15.70;99.90
20380;DHT22;10349;48.666;8.948;2022-09-16T14:52:31;15.60;99.90
20380;DHT22;10349;48.666;8.948;2022-09-16T14:54:57;15.50;99.90
20380;DHT22;10349;48.666;8.948;2022-09-16T14:57:25;15.30;99.90
20380;DHT22;10349;48.666;8.948;2022-09-16T14:59:53;15.30;99.90
20380;DHT22;10349;48.666;8.948;2022-09-16T15:02:40;15.20;99.90
20380;DHT22;10349;48.666;8.948;2022-09-16T15:07:36;15.00;99.90
20380;DHT22;10349;48.666;8.948;2022-09-16T15:10:27;15.00;99.90
20380;DHT22;10349;48.666;8.948;2022-09-16T15:12:58;14.90;99.90
20380;DHT22;10349;48.666;8.948;2022-09-16T15:15:30;14.90;99.90
20380;DHT22;10349;48.666;8.948;2022-09-16T15:18:02;14.80;99.90
20380;DHT22;10349;48.666;8.948;2022-09-16T15:20:33;14.80;99.90
20380;DHT22;10349;48.666;8.948;2022-09-16T15:23:00;14.80;99.90
20380;DHT22;10349;48.666;8.948;2022-09-16T15:25:29;14.80;99.90
20380;DHT22;10349;48.666;8.948;2022-09-16T15:28:06;14.90;99.90
20380;DHT22;10349;48.666;8.948;2022-09-16T15:30:33;14.90;99.90
20380;DHT22;10349;48.666;8.948;2022-09-16T15:32:59;14.90;99.90
20380;DHT22;10349;48.666;8.948;2022-09-16T15:35:26;14.90;99.90
20380;DHT22;10349;48.666;8.948;2022-09-16T15:37:54;14.90;99.90
20380;DHT22;10349;48.666;8.948;2022-09-16T15:40:28;14.90;99.90
20380;DHT22;10349;48.666;8.948;2022-09-16T15:43:02;14.80;99.90
20380;DHT22;10349;48.666;8.948;2022-09-16T15:45:28;14.70;99.90
20380;DHT22;10349;48.666;8.948;2022-09-16T15:48:00;14.70;99.90
20380;DHT22;10349;48.666;8.948;2022-09-16T15:50:38;14.70;99.90
20380;DHT22;10349;48.666;8.948;2022-09-16T15:53:12;14.60;99.90
20380;DHT22;10349;48.666;8.948;2022-09-16T15:55:44;14.60;99.90
20380;DHT22;10349;48.666;8.948;2022-09-16T16:01:59;14.60;99.90
20380;DHT22;10349;48.666;8.948;2022-09-16T16:03:59;14.60;99.90
20380;DHT22;10349;48.666;8.948;2022-09-16T16:06:54;14.60;99.90
20380;DHT22;10349;48.666;8.948;2022-09-16T16:11:55;14.60;99.90
20380;DHT22;10349;48.666;8.948;2022-09-16T16:14:21;14.60;99.90
20380;DHT22;10349;48.666;8.948;2022-09-16T16:16:49;14.60;99.90
20380;DHT22;10349;48.666;8.948;2022-09-16T16:19:14;14.60;99.90
20380;DHT22;10349;48.666;8.948;2022-09-16T16:21:40;14.60;99.90
20380;DHT22;10349;48.666;8.948;2022-09-16T16:24:08;14.50;99.90
20380;DHT22;10349;48.666;8.948;2022-09-16T16:26:34;14.40;99.90
20380;DHT22;10349;48.666;8.948;2022-09-16T16:29:00;14.40;99.90
20380;DHT22;10349;48.666;8.948;2022-09-16T16:31:26;14.30;99.90
20380;DHT22;10349;48.666;8.948;2022-09-16T16:33:52;14.30;99.90
20380;DHT22;10349;48.666;8.948;2022-09-16T16:36:18;14.40;99.90
20380;DHT22;10349;48.666;8.948;2022-09-16T16:38:44;14.30;99.90
20380;DHT22;10349;48.666;8.948;2022-09-16T16:41:12;14.30;99.90
20380;DHT22;10349;48.666;8.948;2022-09-16T16:43:43;14.30;99.90
20380;DHT22;10349;48.666;8.948;2022-09-16T16:46:09;14.20;99.90
20380;DHT22;10349;48.666;8.948;2022-09-16T16:48:35;14.10;99.90
20380;DHT22;10349;48.666;8.948;2022-09-16T16:51:06;14.00;99.90
20380;DHT22;10349;48.666;8.948;2022-09-16T16:53:34;13.90;99.90
20380;DHT22;10349;48.666;8.948;2022-09-16T16:56:05;13.80;99.90
20380;DHT22;10349;48.666;8.948;2022-09-16T16:58:31;13.70;99.90
20380;DHT22;10349;48.666;8.948;2022-09-16T17:01:12;13.70;99.90
20380;DHT22;10349;48.666;8.948;2022-09-16T17:03:39;13.70;99.90
20380;DHT22;10349;48.666;8.948;2022-09-16T17:06:06;13.60;99.90
20380;DHT22;10349;48.666;8.948;2022-09-16T17:08:33;13.60;99.90
20380;DHT22;10349;48.666;8.948;2022-09-16T17:11:16;13.50;99.90
20380;DHT22;10349;48.666;8.948;2022-09-16T17:13:46;13.40;99.90
20380;DHT22;10349;48.666;8.948;2022-09-16T17:16:14;13.30;99.90
20380;DHT22;10349;48.666;8.948;2022-09-16T17:18:41;13.20;99.90
20380;DHT22;10349;48.666;8.948;2022-09-16T17:21:10;13.20;99.90
20380;DHT22;10349;48.666;8.948;2022-09-16T17:23:36;13.20;99.90
20380;DHT22;10349;48.666;8.948;2022-09-16T17:26:02;13.20;99.90
20380;DHT22;10349;48.666;8.948;2022-09-16T17:28:28;13.10;99.90
20380;DHT22;10349;48.666;8.948;2022-09-16T17:30:54;13.10;99.90
20380;DHT22;10349;48.666;8.948;2022-09-16T17:33:20;13.00;99.90
20380;DHT22;10349;48.666;8.948;2022-09-16T17:35:46;13.00;99.90
20380;DHT22;10349;48.666;8.948;2022-09-16T17:38:12;13.00;99.90
20380;DHT22;10349;48.666;8.948;2022-09-16T17:40:38;13.00;99.90
20380;DHT22;10349;48.666;8.948;2022-09-16T17:43:04;13.00;99.90
20380;DHT22;10349;48.666;8.948;2022-09-16T17:45:33;13.00;99.90
20380;DHT22;10349;48.666;8.948;2022-09-16T17:47:59;13.00;99.90
20380;DHT22;10349;48.666;8.948;2022-09-16T17:50:25;13.00;99.90
20380;DHT22;10349;48.666;8.948;2022-09-16T17:52:50;13.00;99.90
20380;DHT22;10349;48.666;8.948;2022-09-16T17:55:16;12.90;99.90
20380;DHT22;10349;48.666;8.948;2022-09-16T17:57:42;12.80;99.90
20380;DHT22;10349;48.666;8.948;2022-09-16T18:00:08;12.80;99.90
20380;DHT22;10349;48.666;8.948;2022-09-16T18:02:39;12.80;99.90
20380;DHT22;10349;48.666;8.948;2022-09-16T18:05:05;12.80;99.90
20380;DHT22;10349;48.666;8.948;2022-09-16T18:07:31;12.70;99.90
20380;DHT22;10349;48.666;8.948;2022-09-16T18:09:57;12.70;99.90
20380;DHT22;10349;48.666;8.948;2022-09-16T18:12:22;12.70;99.90
20380;DHT22;10349;48.666;8.948;2022-09-16T18:14:48;12.70;99.90
20380;DHT22;10349;48.666;8.948;2022-09-16T18:17:13;12.70;99.90
20380;DHT22;10349;48.666;8.948;2022-09-16T18:19:39;12.70;99.90
20380;DHT22;10349;48.666;8.948;2022-09-16T18:22:05;12.70;99.90
20380;DHT22;10349;48.666;8.948;2022-09-16T18:24:30;12.70;99.90
20380;DHT22;10349;48.666;8.948;2022-09-16T18:26:56;12.60;99.90
20380;DHT22;10349;48.666;8.948;2022-09-16T18:29:22;12.60;99.90
20380;DHT22;10349;48.666;8.948;2022-09-16T18:31:48;12.50;99.90
20380;DHT22;10349;48.666;8.948;2022-09-16T18:34:15;12.50;99.90
20380;DHT22;10349;48.666;8.948;2022-09-16T18:36:41;12.50;99.90
20380;DHT22;10349;48.666;8.948;2022-09-16T18:39:11;12.40;99.90
20380;DHT22;10349;48.666;8.948;2022-09-16T18:41:39;12.30;99.90
20380;DHT22;10349;48.666;8.948;2022-09-16T18:44:10;12.20;99.90
20380;DHT22;10349;48.666;8.948;2022-09-16T18:46:36;12.20;99.90
20380;DHT22;10349;48.666;8.948;2022-09-16T18:49:03;12.20;99.90